createdAt,value
2022-09-04T00:03:49.570Z,95.70
2022-09-04T00:06:22.435Z,96.29
2022-09-04T00:09:08.411Z,96.31
2022-09-04T00:11:46.924Z,96.47
2022-09-04T00:14:19.221Z,96.59
2022-09-04T00:17:02.160Z,96.45
2022-09-04T00:19:37.142Z,96.36
2022-09-04T00:22:41.346Z,96.73
2022-09-04T00:25:20.464Z,96.46
2022-09-04T00:27:54.273Z,95.75
2022-09-04T00:30:22.954Z,95.75
2022-09-04T00:33:07.955Z,95.81
2022-09-04T00:35:41.205Z,96.12
2022-09-04T00:38:18.680Z,96.56
2022-09-04T00:40:59.055Z,96.15
2022-09-04T00:43:47.406Z,96.83
2022-09-04T00:46:48.820Z,97.04
2022-09-04T00:49:46.264Z,97.62
2022-09-04T00:52:36.825Z,96.07
2022-09-04T00:55:41.159Z,96.80
2022-09-04T00:58:32.054Z,97.59
2022-09-04T01:01:00.482Z,96.58
2022-09-04T01:03:52.594Z,96.82
2022-09-04T01:06:42.598Z,96.39
2022-09-04T01:09:26.852Z,96.04
2022-09-04T01:12:05.767Z,96.69
2022-09-04T01:14:41.541Z,96.84
2022-09-04T01:17:46.828Z,96.08
2022-09-04T01:20:58.855Z,96.62
2022-09-04T01:24:03.275Z,96.80
2022-09-04T01:26:55.433Z,96.45
2022-09-04T01:29:59.075Z,96.52
2022-09-04T01:32:56.426Z,96.45
2022-09-04T01:35:50.194Z,96.93
2022-09-04T01:38:51.285Z,97.23
2022-09-04T01:41:27.974Z,97.06
2022-09-04T01:43:55.084Z,97.21
2022-09-04T01:46:30.364Z,97.31
2022-09-04T01:48:57.345Z,97.43
2022-09-04T01:52:03.375Z,97.49
2022-09-04T01:54:42.214Z,97.31
2022-09-04T01:57:21.374Z,97.29
2022-09-04T02:00:10.474Z,96.53
2022-09-04T02:03:03.926Z,96.71
2022-09-04T02:05:49.716Z,96.78
2022-09-04T02:08:37.835Z,96.76
2022-09-04T02:11:13.544Z,96.43
2022-09-04T02:14:04.489Z,96.75
2022-09-04T02:16:59.494Z,96.18
2022-09-04T02:19:52.794Z,96.58
2022-09-04T02:22:54.553Z,96.49
2022-09-04T02:25:30.563Z,96.48
2022-09-04T02:28:06.727Z,96.48
2022-09-04T02:30:57.086Z,96.54
2022-09-04T02:33:43.783Z,96.75
2022-09-04T02:36:15.478Z,96.51
2022-09-04T02:39:02.795Z,96.59
2022-09-04T02:42:03.982Z,96.59
2022-09-04T02:44:30.995Z,96.86
2022-09-04T02:47:31.017Z,97.05
2022-09-04T02:50:38.679Z,97.17
2022-09-04T02:53:24.515Z,97.06
2022-09-04T02:56:14.496Z,96.69
2022-09-04T02:58:53.075Z,96.40
2022-09-04T03:01:53.719Z,96.27
2022-09-04T03:04:50.217Z,96.86
2022-09-04T03:07:35.195Z,97.88
2022-09-04T03:10:21.005Z,97.65
2022-09-04T03:13:24.623Z,98.04
2022-09-04T03:16:10.439Z,98.19
2022-09-04T03:19:05.362Z,98.84
2022-09-04T03:21:46.873Z,98.59
2022-09-04T03:24:28.724Z,98.71
2022-09-04T03:26:59.865Z,98.48
2022-09-04T03:29:36.795Z,98.46
2022-09-04T03:32:15.914Z,98.33
2022-09-04T03:34:59.248Z,98.06
2022-09-04T03:37:43.720Z,98.34
2022-09-04T03:40:24.016Z,97.86
2022-09-04T03:43:11.885Z,98.44
2022-09-04T03:46:03.497Z,98.31
2022-09-04T03:48:33.215Z,97.96
2022-09-04T03:51:18.113Z,98.06
2022-09-04T03:53:53.826Z,98.24
2022-09-04T03:56:56.403Z,98.32
2022-09-04T03:59:44.418Z,98.97
2022-09-04T04:02:15.074Z,99.04
2022-09-04T04:04:52.375Z,98.89
2022-09-04T04:07:22.045Z,98.72
2022-09-04T04:10:25.132Z,98.77
2022-09-04T04:13:04.615Z,98.89
2022-09-04T04:15:46.831Z,98.98
2022-09-04T04:18:45.124Z,99.40
2022-09-04T04:21:39.743Z,99.64
2022-09-04T04:24:18.585Z,99.41
2022-09-04T04:27:15.962Z,99.92
2022-09-04T04:30:01.052Z,99.83
2022-09-04T04:32:41.194Z,98.87
2022-09-04T04:35:13.323Z,98.55
2022-09-04T04:37:53.585Z,98.56
2022-09-04T04:40:30.395Z,98.23
2022-09-04T04:43:41.854Z,98.32
2022-09-04T04:46:43.733Z,98.10
2022-09-04T04:49:30.436Z,98.24
2022-09-04T04:52:19.382Z,98.29
2022-09-04T04:54:58.876Z,98.03
2022-09-04T04:57:32.195Z,97.79
2022-09-04T05:00:26.752Z,97.52
2022-09-04T05:03:06.398Z,96.28
2022-09-04T05:06:10.097Z,94.97
2022-09-04T05:08:50.609Z,94.08
2022-09-04T05:11:24.515Z,93.67
2022-09-04T05:14:33.476Z,92.93
2022-09-04T05:17:20.787Z,91.85
2022-09-04T05:19:52.595Z,91.47
2022-09-04T05:22:42.646Z,88.60
2022-09-04T05:25:14.495Z,86.78
2022-09-04T05:28:07.293Z,83.96
2022-09-04T05:30:44.354Z,81.08
2022-09-04T05:33:11.264Z,80.75
2022-09-04T05:36:00.332Z,77.76
2022-09-04T05:38:44.142Z,75.69
2022-09-04T05:41:32.904Z,75.14
2022-09-04T05:44:08.904Z,71.01
2022-09-04T05:47:03.505Z,71.66
2022-09-04T05:49:42.625Z,70.50
2022-09-04T05:52:33.805Z,72.19
2022-09-04T05:55:34.483Z,72.75
2022-09-04T05:58:23.011Z,72.57
2022-09-04T06:01:08.883Z,74.02
2022-09-04T06:04:31.724Z,75.20
2022-09-04T06:07:29.492Z,77.94
2022-09-04T06:10:18.047Z,78.57
2022-09-04T06:13:18.712Z,75.92
2022-09-04T06:16:16.934Z,72.81
2022-09-04T06:18:46.414Z,71.01
2022-09-04T06:21:50.628Z,71.88
2022-09-04T06:24:22.982Z,71.10
2022-09-04T06:27:11.063Z,71.96
2022-09-04T06:30:03.631Z,71.11
2022-09-04T06:32:55.115Z,70.60
2022-09-04T06:36:05.742Z,72.57
2022-09-04T06:38:55.862Z,72.66
2022-09-04T06:41:35.173Z,72.00
2022-09-04T06:44:05.415Z,72.32
2022-09-04T06:46:48.494Z,70.37
2022-09-04T06:49:41.484Z,68.22
2022-09-04T06:52:39.064Z,67.57
2022-09-04T06:55:29.164Z,65.77
2022-09-04T06:58:36.624Z,66.02
2022-09-04T07:01:42.723Z,66.43
2022-09-04T07:04:54.271Z,65.54
2022-09-04T07:07:54.503Z,63.98
2022-09-04T07:10:26.267Z,63.32
2022-09-04T07:13:30.565Z,63.00
2022-09-04T07:16:12.396Z,63.55
2022-09-04T07:19:17.555Z,61.02
2022-09-04T07:22:16.607Z,60.85
2022-09-04T07:25:02.349Z,63.71
2022-09-04T07:27:47.108Z,64.69
2022-09-04T07:30:16.449Z,63.92
2022-09-04T07:33:00.256Z,64.42
2022-09-04T07:35:39.569Z,62.86
2022-09-04T07:38:33.773Z,61.82
2022-09-04T07:41:11.216Z,59.60
2022-09-04T07:43:54.963Z,56.77
2022-09-04T07:47:01.422Z,56.74
2022-09-04T07:50:09.602Z,55.25
2022-09-04T07:52:54.037Z,54.52
2022-09-04T07:55:31.632Z,53.92
2022-09-04T07:58:13.555Z,53.71
2022-09-04T08:00:49.098Z,53.36
2022-09-04T08:03:56.722Z,54.01
2022-09-04T08:06:48.836Z,53.47
2022-09-04T08:09:46.473Z,53.78
2022-09-04T08:12:57.832Z,53.57
2022-09-04T08:15:50.846Z,52.67
2022-09-04T08:18:36.803Z,53.10
2022-09-04T08:21:17.111Z,53.16
2022-09-04T08:24:04.675Z,52.10
2022-09-04T08:26:31.669Z,54.23
2022-09-04T08:29:04.256Z,54.61
2022-09-04T08:31:38.205Z,54.23
2022-09-04T08:34:10.755Z,54.75
2022-09-04T08:36:45.355Z,53.49
2022-09-04T08:39:38.420Z,51.18
2022-09-04T08:42:23.892Z,51.94
2022-09-04T08:44:53.932Z,49.94
2022-09-04T08:47:45.617Z,49.60
2022-09-04T08:50:24.045Z,49.98
2022-09-04T08:53:10.977Z,48.17
2022-09-04T08:56:06.643Z,47.09
2022-09-04T08:58:47.663Z,47.43
2022-09-04T09:01:24.243Z,46.89
2022-09-04T09:04:33.995Z,47.22
2022-09-04T09:07:14.250Z,47.16
2022-09-04T09:10:15.315Z,46.48
2022-09-04T09:12:51.003Z,46.92
2022-09-04T09:15:40.148Z,46.35
2022-09-04T09:18:40.467Z,47.09
2022-09-04T09:21:26.471Z,46.25
2022-09-04T09:24:25.936Z,46.07
2022-09-04T09:27:19.537Z,46.96
2022-09-04T09:30:09.133Z,45.41
2022-09-04T09:33:07.998Z,45.27
2022-09-04T09:35:54.831Z,46.56
2022-09-04T09:38:35.029Z,47.66
2022-09-04T09:41:37.534Z,47.76
2022-09-04T09:44:07.244Z,48.58
2022-09-04T09:46:42.821Z,47.77
2022-09-04T09:49:18.763Z,47.62
2022-09-04T09:52:03.603Z,46.10
2022-09-04T09:55:18.187Z,48.59
2022-09-04T09:58:21.218Z,48.29
2022-09-04T10:01:08.271Z,48.38
2022-09-04T10:03:44.177Z,46.00
2022-09-04T10:06:29.160Z,47.53
2022-09-04T10:09:25.993Z,46.82
2022-09-04T10:12:07.051Z,45.94
2022-09-04T10:15:24.293Z,44.89
2022-09-04T10:18:09.442Z,43.04
2022-09-04T10:20:55.425Z,42.55
2022-09-04T10:23:54.357Z,42.18
2022-09-04T10:26:39.563Z,40.67
2022-09-04T10:29:21.423Z,40.96
2022-09-04T10:32:00.864Z,40.84
2022-09-04T10:34:46.615Z,41.71
2022-09-04T10:37:32.195Z,41.81
2022-09-04T10:40:39.575Z,42.92
2022-09-04T10:43:26.815Z,42.89
2022-09-04T10:46:30.150Z,45.38
2022-09-04T10:49:21.761Z,47.35
2022-09-04T10:52:06.583Z,46.44
2022-09-04T10:55:02.972Z,46.04
2022-09-04T10:57:52.343Z,46.83
2022-09-04T11:00:21.403Z,46.52
2022-09-04T11:03:15.482Z,46.64
2022-09-04T11:05:50.939Z,46.76
2022-09-04T11:08:36.577Z,45.12
2022-09-04T11:11:44.446Z,44.12
2022-09-04T11:14:40.186Z,44.70
2022-09-04T11:20:40.189Z,41.19
2022-09-04T11:23:31.841Z,41.58
2022-09-04T11:26:33.682Z,41.65
2022-09-04T11:29:33.936Z,42.89
2022-09-04T11:32:22.438Z,41.62
2022-09-04T11:35:36.833Z,41.97
2022-09-04T11:38:19.775Z,43.26
2022-09-04T11:41:11.149Z,43.15
2022-09-04T11:43:38.063Z,44.04
2022-09-04T11:47:04.562Z,44.03
2022-09-04T11:49:57.003Z,44.17
2022-09-04T11:59:18.776Z,46.54
2022-09-04T12:02:26.246Z,47.95
2022-09-04T12:10:53.879Z,47.85
2022-09-04T12:13:40.341Z,47.71
2022-09-04T12:16:15.868Z,48.35
2022-09-04T12:19:21.414Z,49.06
2022-09-04T12:22:07.313Z,48.49
2022-09-04T12:24:51.428Z,46.66
2022-09-04T12:27:56.004Z,45.52
2022-09-04T12:30:29.891Z,45.47
2022-09-04T12:33:19.990Z,45.53
2022-09-04T12:36:17.826Z,45.85
2022-09-04T12:39:09.376Z,45.23
2022-09-04T12:41:46.814Z,45.11
2022-09-04T12:44:38.330Z,44.47
2022-09-04T12:47:18.488Z,44.52
2022-09-04T12:50:04.000Z,44.98
2022-09-04T12:52:39.656Z,45.01
2022-09-04T12:55:10.969Z,44.66
2022-09-04T12:58:00.835Z,44.17
2022-09-04T13:00:48.778Z,45.00
2022-09-04T13:03:34.987Z,45.61
2022-09-04T13:06:27.653Z,44.83
2022-09-04T13:09:19.957Z,44.40
2022-09-04T13:12:37.373Z,46.20
2022-09-04T13:15:33.616Z,47.43
2022-09-04T13:18:34.926Z,48.07
2022-09-04T13:21:20.613Z,47.32
2022-09-04T13:24:16.576Z,46.78
2022-09-04T13:26:55.505Z,46.01
2022-09-04T13:29:44.835Z,44.88
2022-09-04T13:32:43.775Z,45.63
2022-09-04T13:35:41.483Z,45.68
2022-09-04T13:38:43.975Z,46.56
2022-09-04T13:41:30.801Z,47.37
2022-09-04T13:44:00.871Z,48.85
2022-09-04T13:46:38.469Z,48.65
2022-09-04T13:49:15.986Z,48.57
2022-09-04T13:51:53.772Z,47.63
2022-09-04T13:54:28.393Z,46.48
2022-09-04T13:57:16.459Z,46.75
2022-09-04T13:59:49.207Z,46.58
2022-09-04T14:02:25.669Z,46.43
2022-09-04T14:05:17.073Z,48.40
2022-09-04T14:07:49.367Z,49.42
2022-09-04T14:10:35.634Z,50.46
2022-09-04T14:13:28.647Z,51.36
2022-09-04T14:16:04.544Z,51.58
2022-09-04T14:18:50.267Z,51.45
2022-09-04T14:22:02.886Z,51.36
2022-09-04T14:24:59.007Z,51.27
2022-09-04T14:27:43.686Z,51.56
2022-09-04T14:30:22.456Z,51.37
2022-09-04T14:33:13.328Z,51.27
2022-09-04T14:36:15.294Z,51.32
2022-09-04T14:38:45.017Z,51.25
2022-09-04T14:41:36.207Z,50.99
2022-09-04T14:44:40.126Z,52.50
2022-09-04T14:47:55.091Z,53.92
2022-09-04T14:50:30.462Z,52.66
2022-09-04T14:53:01.883Z,53.55
2022-09-04T14:55:32.254Z,53.49
2022-09-04T14:58:33.334Z,52.89
2022-09-04T15:01:10.224Z,52.61
2022-09-04T15:03:52.153Z,52.58
2022-09-04T15:06:44.531Z,52.90
2022-09-04T15:09:41.426Z,52.31
2022-09-04T15:12:24.824Z,52.85
2022-09-04T15:15:27.485Z,52.59
2022-09-04T15:18:27.022Z,54.01
2022-09-04T15:21:04.216Z,53.89
2022-09-04T15:24:14.230Z,54.78
2022-09-04T15:27:20.202Z,54.64
2022-09-04T15:30:11.632Z,55.85
2022-09-04T15:32:42.879Z,54.85
2022-09-04T15:35:33.319Z,53.73
2022-09-04T15:38:06.223Z,53.84
2022-09-04T15:41:15.216Z,53.38
2022-09-04T15:43:57.901Z,55.66
2022-09-04T15:46:47.512Z,58.03
2022-09-04T15:49:48.131Z,59.50
2022-09-04T15:52:42.399Z,59.90
2022-09-04T15:55:24.469Z,60.08
2022-09-04T15:58:16.231Z,60.48
2022-09-04T16:01:08.482Z,60.78
2022-09-04T16:03:47.493Z,61.34
2022-09-04T16:06:29.622Z,62.73
2022-09-04T16:09:03.402Z,62.90
2022-09-04T16:11:56.121Z,62.72
2022-09-04T16:14:52.285Z,64.04
2022-09-04T16:17:28.346Z,63.87
2022-09-04T16:20:10.467Z,64.77
2022-09-04T16:23:08.842Z,66.33
2022-09-04T16:25:47.831Z,65.94
2022-09-04T16:28:25.723Z,66.76
2022-09-04T16:31:04.953Z,67.48
2022-09-04T16:33:39.507Z,67.52
2022-09-04T16:36:25.352Z,67.96
2022-09-04T16:39:24.870Z,68.92
2022-09-04T16:42:11.247Z,68.68
2022-09-04T16:44:52.456Z,69.31
2022-09-04T16:47:25.418Z,69.06
2022-09-04T16:50:13.580Z,69.84
2022-09-04T16:52:49.827Z,69.45
2022-09-04T16:55:32.304Z,69.51
2022-09-04T16:58:02.514Z,69.21
2022-09-04T17:00:50.820Z,69.55
2022-09-04T17:03:25.802Z,69.56
2022-09-04T17:06:09.263Z,70.02
2022-09-04T17:08:43.145Z,70.22
2022-09-04T17:11:15.131Z,70.18
2022-09-04T17:13:52.443Z,70.73
2022-09-04T17:16:24.686Z,71.20
2022-09-04T17:18:54.828Z,71.43
2022-09-04T17:28:28.316Z,71.94
2022-09-04T17:29:15.425Z,72.33
2022-09-04T17:29:16.011Z,73.51
2022-09-04T17:31:23.451Z,73.15
2022-09-04T17:40:41.685Z,72.80
2022-09-04T17:40:44.160Z,73.34
2022-09-04T17:40:48.032Z,73.78
2022-09-04T17:43:22.602Z,73.65
2022-09-04T17:46:12.801Z,73.64
2022-09-04T17:48:44.710Z,73.93
2022-09-04T17:51:34.958Z,74.23
2022-09-04T17:54:11.031Z,75.08
2022-09-04T17:56:45.667Z,75.50
2022-09-04T17:59:23.851Z,76.02
2022-09-04T18:02:17.762Z,77.99
2022-09-04T18:05:19.814Z,78.88
2022-09-04T18:08:09.696Z,78.26
2022-09-04T18:10:46.426Z,77.40
2022-09-04T18:13:44.254Z,79.48
2022-09-04T18:16:36.854Z,80.17
2022-09-04T18:19:19.528Z,80.33
2022-09-04T18:22:15.686Z,81.28
2022-09-04T18:24:49.040Z,83.04
2022-09-04T18:27:25.471Z,84.38
2022-09-04T18:31:48.290Z,85.14
2022-09-04T18:37:16.840Z,86.71
2022-09-04T18:37:26.214Z,85.83
2022-09-04T18:39:08.909Z,86.77
2022-09-04T18:47:41.598Z,87.11
2022-09-04T18:50:28.882Z,87.30
2022-09-04T18:50:40.372Z,86.47
2022-09-04T18:51:20.679Z,87.41
2022-09-04T18:54:06.609Z,87.10
2022-09-04T18:56:41.771Z,86.75
2022-09-04T18:59:19.832Z,87.55
2022-09-04T19:01:52.579Z,87.98
2022-09-04T19:04:35.254Z,88.92
2022-09-04T19:07:29.154Z,89.34
2022-09-04T19:10:01.876Z,89.13
2022-09-04T19:12:46.990Z,89.51
2022-09-04T19:15:56.063Z,89.39
2022-09-04T19:18:47.133Z,90.28
2022-09-04T19:21:20.213Z,90.67
2022-09-04T19:23:54.987Z,90.68
2022-09-04T19:26:39.126Z,90.06
2022-09-04T19:29:09.139Z,90.31
2022-09-04T19:31:57.169Z,89.52
2022-09-04T19:34:35.503Z,88.94
2022-09-04T19:39:04.824Z,89.00
2022-09-04T19:46:02.353Z,89.85
2022-09-04T19:46:02.489Z,90.29
2022-09-04T19:46:29.770Z,90.03
2022-09-04T19:53:21.449Z,91.34
2022-09-04T19:53:33.358Z,90.18
2022-09-04T19:55:47.033Z,89.88
2022-09-04T19:58:58.205Z,88.53
2022-09-04T20:01:32.065Z,88.26
2022-09-04T20:04:29.345Z,88.04
2022-09-04T20:07:02.958Z,87.60
2022-09-04T20:09:51.198Z,88.23
2022-09-04T20:12:29.374Z,88.82
2022-09-04T20:15:01.836Z,88.74
2022-09-04T20:18:04.486Z,90.23
2022-09-04T20:21:04.336Z,90.62
2022-09-04T20:23:46.295Z,90.50
2022-09-04T20:26:25.734Z,92.33
2022-09-04T20:29:15.506Z,92.94
2022-09-04T20:32:24.050Z,92.39
2022-09-04T20:35:13.663Z,92.80
2022-09-04T20:37:51.627Z,93.04
2022-09-04T20:40:26.883Z,93.05
2022-09-04T20:43:02.883Z,93.03
2022-09-04T20:50:50.200Z,91.16
2022-09-04T20:52:57.187Z,91.52
2022-09-04T20:53:04.839Z,91.47
2022-09-04T20:54:56.082Z,90.30
2022-09-04T21:02:09.340Z,89.67
2022-09-04T21:03:21.747Z,88.50
2022-09-04T21:04:11.315Z,88.21
2022-09-04T21:07:08.997Z,87.54
2022-09-04T21:09:55.793Z,88.24
2022-09-04T21:12:32.962Z,88.33
2022-09-04T21:15:45.385Z,88.76
2022-09-04T21:18:34.596Z,88.08
2022-09-04T21:21:07.046Z,88.35
2022-09-04T21:23:51.700Z,87.49
2022-09-04T21:26:51.535Z,87.60
2022-09-04T21:29:43.355Z,87.72
2022-09-04T21:32:26.465Z,87.42
2022-09-04T21:35:31.675Z,87.68
2022-09-04T21:38:28.629Z,87.97
2022-09-04T21:41:03.817Z,88.36
2022-09-04T21:43:48.540Z,88.89
2022-09-04T21:46:52.590Z,88.30
2022-09-04T21:49:47.516Z,88.95
2022-09-04T21:52:22.866Z,89.13
2022-09-04T21:56:44.897Z,89.15
2022-09-04T22:02:41.874Z,90.39
2022-09-04T22:02:42.825Z,90.69
2022-09-04T22:04:26.400Z,90.06
2022-09-04T22:10:33.733Z,90.76
2022-09-04T22:13:41.541Z,91.00
2022-09-04T22:13:56.702Z,90.82
2022-09-04T22:16:42.306Z,91.09
2022-09-04T22:19:24.066Z,91.32
2022-09-04T22:22:09.085Z,91.68
2022-09-04T22:25:00.639Z,92.16
2022-09-04T22:28:08.870Z,92.14
2022-09-04T22:30:45.405Z,91.39
2022-09-04T22:33:25.053Z,91.95
2022-09-04T22:36:33.565Z,90.62
2022-09-04T22:39:31.408Z,90.47
2022-09-04T22:42:29.386Z,91.37
2022-09-04T22:45:14.039Z,90.99
2022-09-04T22:48:08.122Z,90.09
2022-09-04T22:51:19.523Z,90.18
2022-09-04T22:54:07.306Z,89.82
2022-09-04T22:56:46.823Z,90.12
2022-09-04T22:59:27.214Z,91.70
2022-09-04T23:03:04.226Z,92.30
2022-09-04T23:05:36.596Z,92.52
2022-09-04T23:13:43.964Z,92.73
2022-09-04T23:13:51.398Z,93.70
2022-09-04T23:15:13.209Z,93.66
2022-09-04T23:19:07.325Z,94.21
2022-09-04T23:26:34.274Z,94.67
2022-09-04T23:26:44.825Z,94.56
2022-09-04T23:27:05.188Z,94.71
2022-09-04T23:29:48.963Z,95.04
2022-09-04T23:32:32.350Z,95.77
2022-09-04T23:35:17.371Z,95.21
2022-09-04T23:38:10.543Z,94.84
2022-09-04T23:41:15.760Z,95.26
2022-09-04T23:44:13.678Z,94.77
2022-09-04T23:46:58.971Z,95.14
2022-09-04T23:49:36.028Z,95.22
2022-09-04T23:52:46.242Z,95.46
2022-09-04T23:55:41.433Z,95.94
2022-09-04T23:58:53.350Z,95.97
